Time;durP1;ratioP1;P1;durP2;ratioP2;P2;SDS_P1;SDS_P2;PMS_P1;PMS_P2;Temp;Humidity;BMP_temperature;BMP_pressure;BME280_temperature;BME280_humidity;BME280_pressure;Samples;Min_cycle;Max_cycle;Signal;HPM_P1;HPM_P2
2023/08/25 00:00:57;;;;;;;5.32;3.22;;;;;;;;;;4409045;32;67261;-62
2023/08/25 00:04:02;;;;;;;5.37;2.65;;;;;;;;;;4410167;32;67142;-61
2023/08/25 00:06:56;;;;;;;5.20;2.50;;;;;;;;;;4409681;32;60376;-62
2023/08/25 00:10:06;;;;;;;6.20;2.22;;;;;;;;;;4409587;32;71689;-62
2023/08/25 00:13:17;;;;;;;3.42;2.03;;;;;;;;;;4409460;32;64865;-62
2023/08/25 00:16:23;;;;;;;;;;;;;;;;;;;;;
2023/08/25 00:19:17;;;;;;;4.62;2.10;;;;;;;;;;4410906;32;60300;-61
2023/08/25 00:22:09;;;;;;;3.35;1.92;;;;;;;;;;4411082;32;69686;-62
2023/08/25 00:25:13;;;;;;;4.45;2.78;;;;;;;;;;4410884;32;69223;-61
2023/08/25 00:28:08;;;;;;;4.28;2.20;;;;;;;;;;4409758;32;67209;-62
2023/08/25 00:30:57;;;;;;;7.20;2.37;;;;;;;;;;4408811;32;72149;-61
2023/08/25 00:33:57;;;;;;;6.12;2.22;;;;;;;;;;4409033;32;66574;-62
2023/08/25 00:37:09;;;;;;;6.12;2.60;;;;;;;;;;4409216;32;69281;-60
2023/08/25 00:39:59;;;;;;;3.92;2.50;;;;;;;;;;4410299;32;67694;-62
2023/08/25 00:42:52;;;;;;;4.78;2.58;;;;;;;;;;4377366;32;72296;-61
2023/08/25 00:45:43;;;;;;;3.75;2.12;;;;;;;;;;4409154;32;65906;-62
2023/08/25 00:48:33;;;;;;;5.00;2.47;;;;;;;;;;4398359;32;67559;-62
2023/08/25 00:51:33;;;;;;;3.08;2.17;;;;;;;;;;4411325;32;59216;-61
2023/08/25 00:54:44;;;;;;;2.90;2.17;;;;;;;;;;4386298;32;70211;-62
2023/08/25 00:57:37;;;;;;;4.40;2.55;;;;;;;;;;4398631;32;69281;-62
2023/08/25 01:00:34;;;;;;;5.05;2.70;;;;;;;;;;4398450;32;67500;-62
2023/08/25 01:03:39;;;;;;;6.72;2.85;;;;;;;;;;4400031;32;60005;-61
2023/08/25 01:06:34;;;;;;;7.50;2.53;;;;;;;;;;4398488;32;70296;-62
2023/08/25 01:09:24;;;;;;;4.40;2.83;;;;;;;;;;4398495;32;68243;-62
2023/08/25 01:12:33;;;;;;;6.47;2.78;;;;;;;;;;4387572;32;67215;-61
2023/08/25 01:15:47;;;;;;;4.85;2.97;;;;;;;;;;4398457;32;71845;-61
2023/08/25 01:18:45;;;;;;;5.47;2.67;;;;;;;;;;4400016;32;66044;-62
2023/08/25 01:21:52;;;;;;;5.37;2.83;;;;;;;;;;4401494;32;67353;-61
2023/08/25 01:24:45;;;;;;;5.72;2.70;;;;;;;;;;4399979;32;60417;-61
2023/08/25 01:27:38;;;;;;;5.32;2.67;;;;;;;;;;4398050;32;70456;-62
2023/08/25 01:30:28;;;;;;;4.60;2.50;;;;;;;;;;4398517;32;64841;-62
2023/08/25 01:33:33;;;;;;;6.93;3.00;;;;;;;;;;4399479;32;67418;-62
2023/08/25 01:36:43;;;;;;;5.20;2.92;;;;;;;;;;4399625;32;58989;-61
2023/08/25 01:39:44;;;;;;;8.70;2.87;;;;;;;;;;4400111;32;70515;-62
2023/08/25 01:42:49;;;;;;;5.43;2.80;;;;;;;;;;4398145;32;68321;-61
2023/08/25 01:45:44;;;;;;;7.30;3.00;;;;;;;;;;4388936;32;67757;-62
2023/08/25 01:49:24;;;;;;;6.72;3.10;;;;;;;;;;4398000;32;71526;-61
2023/08/25 01:52:22;;;;;;;6.07;3.58;;;;;;;;;;4399265;32;66245;-62
2023/08/25 01:55:20;;;;;;;5.72;3.33;;;;;;;;;;4398549;32;68105;-62
2023/08/25 01:58:18;;;;;;;5.30;3.62;;;;;;;;;;4378586;32;67563;-62
2023/08/25 02:01:38;;;;;;;6.30;3.62;;;;;;;;;;4388178;32;71901;-61
2023/08/25 02:04:46;;;;;;;5.00;4.07;;;;;;;;;;4399309;32;65929;-62
2023/08/25 02:07:57;;;;;;;5.22;3.40;;;;;;;;;;4399111;32;67603;-62
2023/08/25 02:11:11;;;;;;;5.87;3.33;;;;;;;;;;4398290;32;61073;-61
2023/08/25 02:14:14;;;;;;;7.93;3.78;;;;;;;;;;4397768;32;70607;-62
2023/08/25 02:17:03;;;;;;;6.93;3.83;;;;;;;;;;4399094;32;70208;-61
2023/08/25 02:20:24;;;;;;;7.82;3.53;;;;;;;;;;4388445;32;67075;-60
2023/08/25 02:23:15;;;;;;;5.72;3.45;;;;;;;;;;4399206;32;59097;-61
2023/08/25 02:26:14;;;;;;;7.28;3.55;;;;;;;;;;4397489;32;70581;-61
2023/08/25 02:29:10;;;;;;;6.22;3.70;;;;;;;;;;4400055;32;68494;-61
2023/08/25 02:32:07;;;;;;;6.62;3.37;;;;;;;;;;4397533;32;67438;-62
2023/08/25 02:34:58;;;;;;;6.43;3.40;;;;;;;;;;4398681;32;71717;-62
2023/08/25 02:38:08;;;;;;;5.40;3.35;;;;;;;;;;4386709;32;66797;-62
2023/08/25 02:41:12;;;;;;;6.55;2.90;;;;;;;;;;4398457;32;67513;-61
2023/08/25 02:44:01;;;;;;;5.95;2.53;;;;;;;;;;4397612;32;59176;-62
2023/08/25 02:46:51;;;;;;;4.50;2.28;;;;;;;;;;4398273;32;69556;-61
2023/08/25 02:49:39;;;;;;;5.75;3.05;;;;;;;;;;4397380;32;65904;-61
2023/08/25 02:52:29;;;;;;;6.82;2.90;;;;;;;;;;4398470;32;67733;-62
2023/08/25 02:55:22;;;;;;;5.57;2.92;;;;;;;;;;4377069;32;60168;-61
2023/08/25 02:58:10;;;;;;;4.93;2.30;;;;;;;;;;4397134;32;69718;-62
2023/08/25 03:01:09;;;;;;;4.75;2.40;;;;;;;;;;4398574;32;69423;-62
2023/08/25 03:04:08;;;;;;;4.47;2.58;;;;;;;;;;4397162;32;67487;-62
2023/08/25 03:07:01;;;;;;;3.78;2.30;;;;;;;;;;4398183;32;70720;-61
2023/08/25 03:09:57;;;;;;;4.32;2.35;;;;;;;;;;4386604;32;66746;-62
2023/08/25 03:12:49;;;;;;;4.95;2.53;;;;;;;;;;4397193;32;67436;-61
2023/08/25 03:15:37;;;;;;;4.32;1.85;;;;;;;;;;4386035;32;68845;-61
2023/08/25 03:18:46;;;;;;;3.20;2.00;;;;;;;;;;4398288;32;71614;-60
2023/08/25 03:21:40;;;;;;;4.72;2.03;;;;;;;;;;4398792;32;65092;-61
2023/08/25 03:24:32;;;;;;;3.53;2.40;;;;;;;;;;4397210;32;67386;-61
2023/08/25 03:27:34;;;;;;;4.62;2.30;;;;;;;;;;4387194;32;60220;-62
2023/08/25 03:30:31;;;;;;;3.15;2.17;;;;;;;;;;4386510;32;70142;-61
2023/08/25 03:33:30;;;;;;;3.05;1.77;;;;;;;;;;4398785;32;68517;-62
2023/08/25 03:36:22;;;;;;;1.87;1.67;;;;;;;;;;4386162;32;67607;-62
2023/08/25 03:39:22;;;;;;;2.72;1.55;;;;;;;;;;4398536;32;71835;-60
2023/08/25 03:42:08;;;;;;;2.87;1.83;;;;;;;;;;4396515;32;69759;-61
2023/08/25 03:45:20;;;;;;;1.77;1.60;;;;;;;;;;4398016;32;69350;-61
2023/08/25 03:48:07;;;;;;;2.83;1.55;;;;;;;;;;4396910;32;66793;-61
2023/08/25 03:51:05;;;;;;;4.03;2.10;;;;;;;;;;4396841;32;70908;-62
2023/08/25 03:53:57;;;;;;;3.92;2.10;;;;;;;;;;4387492;32;66797;-61
2023/08/25 03:56:49;;;;;;;3.45;1.90;;;;;;;;;;4397975;32;66524;-62
2023/08/25 03:59:45;;;;;;;4.00;1.85;;;;;;;;;;4385058;32;59609;-63
2023/08/25 04:02:39;;;;;;;2.12;1.45;;;;;;;;;;4396498;32;70349;-62
2023/08/25 04:05:49;;;;;;;1.70;1.40;;;;;;;;;;4397673;32;68494;-62
2023/08/25 04:08:49;;;;;;;1.95;1.50;;;;;;;;;;4397770;32;66695;-61
2023/08/25 04:11:48;;;;;;;1.83;1.70;;;;;;;;;;4375705;32;60799;-62
2023/08/25 04:14:46;;;;;;;3.05;1.77;;;;;;;;;;4397747;32;70924;-61
2023/08/25 04:17:45;;;;;;;2.05;1.52;;;;;;;;;;4396577;32;69334;-61
2023/08/25 04:20:42;;;;;;;4.10;2.40;;;;;;;;;;4398022;32;66862;-61
2023/08/25 04:23:42;;;;;;;2.75;1.92;;;;;;;;;;4385996;32;71431;-62
2023/08/25 04:26:44;;;;;;;2.40;1.75;;;;;;;;;;4385111;32;67297;-62
2023/08/25 04:29:56;;;;;;;1.92;1.67;;;;;;;;;;4400597;32;67573;-61
2023/08/25 04:32:55;;;;;;;3.15;1.50;;;;;;;;;;4399368;32;60137;-61
2023/08/25 04:35:55;;;;;;;1.98;1.42;;;;;;;;;;4399141;32;72106;-61
2023/08/25 04:38:51;;;;;;;2.35;1.52;;;;;;;;;;4400299;32;66055;-61
2023/08/25 04:41:58;;;;;;;;;;;;;;;;;;4398213;32;67877;-60
2023/08/25 04:44:53;;;;;;;4.47;2.35;;;;;;;;;;4398712;32;60185;-62
2023/08/25 04:48:03;;;;;;;7.78;2.92;;;;;;;;;;4386250;32;70275;-61
2023/08/25 04:50:58;;;;;;;5.32;3.55;;;;;;;;;;4400073;32;69476;-62
2023/08/25 04:54:05;;;;;;;5.97;2.87;;;;;;;;;;4398932;32;67403;-61
2023/08/25 04:56:58;;;;;;;5.40;2.60;;;;;;;;;;4400358;32;71910;-62
2023/08/25 05:00:05;;;;;;;;;;;;;;;;;;;;;
2023/08/25 05:03:08;;;;;;;7.80;3.28;;;;;;;;;;4399334;32;70412;-62
2023/08/25 05:05:55;;;;;;;8.00;4.07;;;;;;;;;;4388390;32;67607;-61
2023/08/25 05:09:03;;;;;;;13.25;5.50;;;;;;;;;;4398701;32;71288;-62
2023/08/25 05:11:57;;;;;;;;;;;;;;;;;;4399670;32;67110;-60
2023/08/25 05:14:58;;;;;;;10.25;5.37;;;;;;;;;;4400100;32;67271;-62
2023/08/25 05:18:16;;;;;;;12.93;6.32;;;;;;;;;;4401313;32;59361;-62
2023/08/25 05:21:12;;;;;;;12.05;5.00;;;;;;;;;;4399768;32;69760;-62
2023/08/25 05:24:28;;;;;;;10.05;4.20;;;;;;;;;;4388012;32;69331;-62
2023/08/25 05:28:01;;;;;;;8.38;3.90;;;;;;;;;;4385600;32;67788;-62
2023/08/25 05:31:20;;;;;;;8.07;4.03;;;;;;;;;;4397895;32;59772;-61
2023/08/25 05:34:21;;;;;;;11.95;4.85;;;;;;;;;;4398221;32;70346;-60
2023/08/25 05:37:39;;;;;;;7.62;3.65;;;;;;;;;;4387210;32;69404;-62
2023/08/25 05:40:42;;;;;;;9.38;3.45;;;;;;;;;;4398133;32;67821;-60
2023/08/25 05:44:00;;;;;;;7.05;3.17;;;;;;;;;;4396100;32;70212;-61
2023/08/25 05:47:11;;;;;;;;;;;;;;;;;;;;;
2023/08/25 05:50:15;;;;;;;5.35;2.60;;;;;;;;;;4386620;32;68426;-61
2023/08/25 05:53:25;;;;;;;9.80;4.47;;;;;;;;;;4399444;32;60075;-60
2023/08/25 05:56:30;;;;;;;10.70;4.12;;;;;;;;;;4399076;32;71760;-61
2023/08/25 05:59:58;;;;;;;7.25;2.85;;;;;;;;;;4398451;32;65769;-60
2023/08/25 06:02:55;;;;;;;5.65;2.55;;;;;;;;;;4398026;32;67018;-62
2023/08/25 06:06:15;;;;;;;4.03;2.67;;;;;;;;;;4397352;32;60023;-62
2023/08/25 06:09:21;;;;;;;6.35;2.90;;;;;;;;;;4399043;32;70660;-61
2023/08/25 06:12:23;;;;;;;8.25;3.60;;;;;;;;;;4398898;32;69246;-62
2023/08/25 06:15:52;;;;;;;;;;;;;;;;;;;;;
2023/08/25 06:18:48;;;;;;;6.28;3.22;;;;;;;;;;4397633;32;72320;-61
2023/08/25 06:21:53;;;;;;;7.82;3.03;;;;;;;;;;4366046;32;64774;-61
2023/08/25 06:24:43;;;;;;;8.85;3.60;;;;;;;;;;3863619;36;43431;-62
2023/08/25 06:28:04;;;;;;;6.10;2.60;;;;;;;;;;4416175;32;59085;-61
2023/08/25 06:30:58;;;;;;;6.97;3.00;;;;;;;;;;4426405;32;70724;-62
2023/08/25 06:34:04;;;;;;;4.87;2.58;;;;;;;;;;4426402;32;69561;-60
2023/08/25 06:37:20;;;;;;;8.45;3.58;;;;;;;;;;4426475;32;67452;-61
2023/08/25 06:40:21;;;;;;;5.32;2.80;;;;;;;;;;4414790;32;71615;-61
2023/08/25 06:43:32;;;;;;;10.85;3.70;;;;;;;;;;4426291;32;67056;-61
2023/08/25 06:46:36;;;;;;;11.27;3.53;;;;;;;;;;4426363;32;66180;-61
2023/08/25 06:49:54;;;;;;;9.07;3.15;;;;;;;;;;4401171;32;59700;-61
2023/08/25 06:52:56;;;;;;;4.10;2.33;;;;;;;;;;4426156;32;71802;-61
2023/08/25 06:55:50;;;;;;;4.55;1.83;;;;;;;;;;4414698;32;66021;-60
2023/08/25 06:58:52;;;;;;;4.00;2.22;;;;;;;;;;4426087;32;66738;-61
2023/08/25 07:01:42;;;;;;;3.25;1.65;;;;;;;;;;4427393;32;60213;-61
2023/08/25 07:04:30;;;;;;;4.03;1.80;;;;;;;;;;4416143;32;69454;-61
2023/08/25 07:07:33;;;;;;;1.62;1.15;;;;;;;;;;4412552;32;68575;-61
2023/08/25 07:11:08;;;;;;;1.92;1.10;;;;;;;;;;4401950;32;67695;-62
2023/08/25 07:14:36;;;;;;;2.17;1.40;;;;;;;;;;4410155;32;70631;-60
2023/08/25 07:17:34;;;;;;;2.12;1.12;;;;;;;;;;4398965;32;64874;-60
2023/08/25 07:20:28;;;;;;;4.70;1.40;;;;;;;;;;4399121;32;69251;-59
2023/08/25 07:23:31;;;;;;;1.87;1.00;;;;;;;;;;4390394;32;66634;-61
2023/08/25 07:26:25;;;;;;;2.25;0.93;;;;;;;;;;4410086;32;70571;-61
2023/08/25 07:29:23;;;;;;;1.27;0.85;;;;;;;;;;4410151;32;64994;-61
2023/08/25 07:32:18;;;;;;;2.25;1.20;;;;;;;;;;4410108;32;66756;-60
2023/08/25 07:35:21;;;;;;;2.20;1.27;;;;;;;;;;4391337;32;60975;-60
2023/08/25 07:38:29;;;;;;;2.70;1.42;;;;;;;;;;4378176;32;70265;-61
2023/08/25 07:41:44;;;;;;;1.30;1.08;;;;;;;;;;4387766;32;70089;-61
2023/08/25 07:44:46;;;;;;;1.85;1.20;;;;;;;;;;4387859;32;67577;-60
2023/08/25 07:48:00;;;;;;;1.13;1.00;;;;;;;;;;4390058;32;59089;-61
2023/08/25 07:50:57;;;;;;;1.50;1.10;;;;;;;;;;4388950;32;70051;-61
2023/08/25 07:53:55;;;;;;;3.30;1.70;;;;;;;;;;4386311;32;68994;-61
2023/08/25 07:56:56;;;;;;;2.05;1.05;;;;;;;;;;4389051;32;67296;-61
2023/08/25 07:59:49;;;;;;;3.37;1.62;;;;;;;;;;4388384;32;70673;-60
2023/08/25 08:02:43;;;;;;;2.28;1.12;;;;;;;;;;4399732;32;65064;-61
2023/08/25 08:05:46;;;;;;;2.15;1.50;;;;;;;;;;4375089;32;68232;-61
2023/08/25 08:08:43;;;;;;;2.10;1.37;;;;;;;;;;4385322;32;61295;-62
2023/08/25 08:11:36;;;;;;;1.60;1.50;;;;;;;;;;4388766;32;70092;-61
2023/08/25 08:14:51;;;;;;;2.55;1.55;;;;;;;;;;4400053;32;65898;-60
2023/08/25 08:17:44;;;;;;;4.37;1.70;;;;;;;;;;4388164;32;66689;-60
2023/08/25 08:20:58;;;;;;;2.15;1.40;;;;;;;;;;4385224;32;61113;-61
2023/08/25 08:23:53;;;;;;;4.12;1.92;;;;;;;;;;4384443;32;70748;-61
2023/08/25 08:26:49;;;;;;;2.55;1.42;;;;;;;;;;4399613;32;68630;-60
2023/08/25 08:29:52;;;;;;;1.95;1.35;;;;;;;;;;4385331;32;66233;-61
2023/08/25 08:33:14;;;;;;;6.05;1.55;;;;;;;;;;4403278;32;71945;-62
2023/08/25 08:36:12;;;;;;;3.45;1.90;;;;;;;;;;4398491;32;64942;-66
2023/08/25 08:39:03;;;;;;;4.22;1.83;;;;;;;;;;4385271;32;68515;-60
2023/08/25 08:42:00;;;;;;;6.00;2.42;;;;;;;;;;4387373;32;66872;-61
2023/08/25 08:45:00;;;;;;;3.20;2.00;;;;;;;;;;4374618;32;72844;-61
2023/08/25 08:47:56;;;;;;;2.90;1.98;;;;;;;;;;4383820;32;64289;-61
2023/08/25 08:50:52;;;;;;;2.42;1.55;;;;;;;;;;4387517;32;67570;-61
2023/08/25 08:53:56;;;;;;;4.95;2.22;;;;;;;;;;4399407;32;59195;-62
2023/08/25 08:56:47;;;;;;;3.70;2.80;;;;;;;;;;4387328;32;70473;-61
2023/08/25 08:59:43;;;;;;;3.97;2.05;;;;;;;;;;4399109;32;69315;-62
2023/08/25 09:02:50;;;;;;;5.50;2.12;;;;;;;;;;4384221;32;68100;-62
2023/08/25 09:05:47;;;;;;;3.00;1.90;;;;;;;;;;4388095;32;60087;-61
2023/08/25 09:08:43;;;;;;;2.35;1.77;;;;;;;;;;4378112;32;70384;-62
2023/08/25 09:11:38;;;;;;;2.42;1.62;;;;;;;;;;4388101;32;68071;-62
2023/08/25 09:14:28;;;;;;;2.35;1.75;;;;;;;;;;4398710;32;67553;-61
2023/08/25 09:17:21;;;;;;;1.50;1.40;;;;;;;;;;4386731;32;70715;-61
2023/08/25 09:20:17;;;;;;;1.70;1.60;;;;;;;;;;4398818;32;64932;-61
2023/08/25 09:23:08;;;;;;;1.27;1.12;;;;;;;;;;4373251;32;68570;-61
2023/08/25 09:26:18;;;;;;;1.90;1.35;;;;;;;;;;4398868;32;60109;-61
2023/08/25 09:29:09;;;;;;;2.47;1.50;;;;;;;;;;4387279;32;69668;-62
2023/08/25 09:32:09;;;;;;;1.48;1.37;;;;;;;;;;4362905;32;65705;-60
2023/08/25 09:35:21;;;;;;;1.33;1.20;;;;;;;;;;4389136;32;66543;-61
2023/08/25 09:38:21;;;;;;;1.98;1.55;;;;;;;;;;4363549;32;60099;-62
2023/08/25 09:41:11;;;;;;;2.42;1.80;;;;;;;;;;4375991;32;69452;-62
2023/08/25 09:44:04;;;;;;;2.40;1.40;;;;;;;;;;4386959;32;68161;-62
2023/08/25 09:47:35;;;;;;;1.52;1.42;;;;;;;;;;4398497;32;67694;-61
2023/08/25 09:50:43;;;;;;;1.73;1.62;;;;;;;;;;4383962;32;71451;-61
2023/08/25 09:53:45;;;;;;;2.70;1.60;;;;;;;;;;4387451;32;65851;-61
2023/08/25 09:56:49;;;;;;;2.60;1.52;;;;;;;;;;4378053;32;67573;-61
2023/08/25 09:59:52;;;;;;;2.58;1.62;;;;;;;;;;4387803;32;66762;-62
2023/08/25 10:02:42;;;;;;;2.50;1.70;;;;;;;;;;4377179;32;71993;-61
2023/08/25 10:05:43;;;;;;;2.78;1.75;;;;;;;;;;4388673;32;64966;-61
2023/08/25 10:08:32;;;;;;;2.75;1.95;;;;;;;;;;4387450;32;66930;-61
2023/08/25 10:11:53;;;;;;;2.62;1.60;;;;;;;;;;4387848;32;58835;-61
2023/08/25 10:14:53;;;;;;;2.10;1.58;;;;;;;;;;4386570;32;69528;-61
2023/08/25 10:17:50;;;;;;;3.22;1.75;;;;;;;;;;4388558;32;69317;-60
2023/08/25 10:20:39;;;;;;;4.87;2.20;;;;;;;;;;4386225;32;67534;-61
2023/08/25 10:23:34;;;;;;;2.72;1.62;;;;;;;;;;4379216;32;70852;-62
2023/08/25 10:26:27;;;;;;;2.75;1.55;;;;;;;;;;4389232;32;70608;-61
2023/08/25 10:29:19;;;;;;;2.55;1.37;;;;;;;;;;4397709;32;70552;-62
2023/08/25 10:32:10;;;;;;;2.33;1.50;;;;;;;;;;4383323;32;67667;-62
2023/08/25 10:35:15;;;;;;;3.10;1.60;;;;;;;;;;4397904;32;71854;-62
2023/08/25 10:38:30;;;;;;;3.12;1.62;;;;;;;;;;4375675;32;64944;-62
2023/08/25 10:41:42;;;;;;;2.12;1.48;;;;;;;;;;4397948;32;67650;-62
2023/08/25 10:44:41;;;;;;;1.00;0.90;;;;;;;;;;4386348;32;59623;-62
2023/08/25 10:47:51;;;;;;;2.83;1.40;;;;;;;;;;4373432;32;71819;-61
2023/08/25 10:51:14;;;;;;;3.67;2.03;;;;;;;;;;4387063;32;69585;-62
2023/08/25 10:54:24;;;;;;;2.83;1.23;;;;;;;;;;4375009;32;67592;-61
2023/08/25 10:57:31;;;;;;;1.62;1.12;;;;;;;;;;4398004;32;59140;-62
2023/08/25 11:00:34;;;;;;;2.72;1.50;;;;;;;;;;4397688;32;70678;-62
2023/08/25 11:03:58;;;;;;;;;;;;;;;;;;;;;
2023/08/25 11:06:52;;;;;;;1.45;1.27;;;;;;;;;;4372274;32;68592;-62
2023/08/25 11:09:41;;;;;;;2.22;1.45;;;;;;;;;;4386174;32;71678;-61
2023/08/25 11:12:42;;;;;;;1.50;1.40;;;;;;;;;;4400585;32;65736;-62
2023/08/25 11:15:32;;;;;;;1.92;1.52;;;;;;;;;;4389380;32;68289;-61
2023/08/25 11:18:40;;;;;;;4.97;2.00;;;;;;;;;;4381228;32;59274;-61
2023/08/25 11:21:30;;;;;;;5.25;1.95;;;;;;;;;;4364567;32;72772;-61
2023/08/25 11:24:32;;;;;;;4.37;1.90;;;;;;;;;;4374771;32;67395;-61
2023/08/25 11:27:32;;;;;;;2.47;1.77;;;;;;;;;;4381418;32;68222;-62
2023/08/25 11:30:36;;;;;;;3.50;1.70;;;;;;;;;;4400608;32;59374;-62
2023/08/25 11:33:36;;;;;;;3.55;1.90;;;;;;;;;;4400203;32;71930;-62
2023/08/25 11:36:30;;;;;;;3.30;1.83;;;;;;;;;;4400357;32;69590;-62
2023/08/25 11:39:42;;;;;;;2.72;1.85;;;;;;;;;;4377040;32;67402;-62
2023/08/25 11:42:40;;;;;;;5.07;2.30;;;;;;;;;;4388933;32;71683;-62
2023/08/25 11:45:46;;;;;;;3.53;1.85;;;;;;;;;;4374032;32;71290;-61
2023/08/25 11:48:54;;;;;;;2.47;1.73;;;;;;;;;;4389970;32;69263;-61
2023/08/25 11:51:59;;;;;;;6.15;2.25;;;;;;;;;;4365981;32;67384;-61
2023/08/25 11:54:52;;;;;;;3.10;1.83;;;;;;;;;;4388595;32;70656;-62
2023/08/25 11:57:53;;;;;;;3.00;1.80;;;;;;;;;;4385260;32;67685;-62
2023/08/25 12:01:16;;;;;;;2.15;1.37;;;;;;;;;;4390091;32;66852;-62
2023/08/25 12:04:30;;;;;;;2.00;1.50;;;;;;;;;;4399748;32;60386;-62
2023/08/25 12:07:26;;;;;;;2.15;1.62;;;;;;;;;;4399696;32;69666;-62
2023/08/25 12:10:25;;;;;;;3.45;1.67;;;;;;;;;;4389377;32;69411;-60
2023/08/25 12:13:19;;;;;;;2.53;1.50;;;;;;;;;;4400583;32;67948;-62
2023/08/25 12:16:17;;;;;;;2.12;1.48;;;;;;;;;;4378565;32;60006;-62
2023/08/25 12:19:06;;;;;;;2.03;1.43;;;;;;;;;;4399761;32;70256;-62
2023/08/25 12:22:25;;;;;;;2.78;1.50;;;;;;;;;;4374141;32;70260;-62
2023/08/25 12:25:35;;;;;;;2.17;1.27;;;;;;;;;;4390092;32;67837;-63
2023/08/25 12:28:35;;;;;;;2.08;1.50;;;;;;;;;;4388691;32;71616;-62
2023/08/25 12:31:32;;;;;;;2.45;1.52;;;;;;;;;;4399435;32;66053;-61
2023/08/25 12:34:42;;;;;;;2.37;1.50;;;;;;;;;;4374783;32;68842;-62
2023/08/25 12:37:34;;;;;;;2.37;1.75;;;;;;;;;;4387672;32;59076;-62
2023/08/25 12:40:33;;;;;;;1.75;1.25;;;;;;;;;;4386830;32;71612;-61
2023/08/25 12:43:35;;;;;;;4.10;1.87;;;;;;;;;;4399345;32;65863;-62
2023/08/25 12:46:31;;;;;;;2.45;1.77;;;;;;;;;;4399411;32;68022;-62
2023/08/25 12:49:25;;;;;;;2.22;1.60;;;;;;;;;;4388430;32;60223;-62
2023/08/25 12:52:36;;;;;;;2.80;1.60;;;;;;;;;;4399068;32;70481;-61
2023/08/25 12:55:25;;;;;;;2.70;1.42;;;;;;;;;;4387495;32;68530;-62
2023/08/25 12:58:28;;;;;;;2.92;1.37;;;;;;;;;;4387041;32;67814;-61
2023/08/25 13:01:39;;;;;;;1.87;1.55;;;;;;;;;;4398861;32;70718;-60
2023/08/25 13:04:39;;;;;;;2.25;1.67;;;;;;;;;;4375640;32;66635;-60
2023/08/25 13:07:42;;;;;;;1.92;1.35;;;;;;;;;;4398561;32;68355;-61
2023/08/25 13:10:51;;;;;;;1.23;1.13;;;;;;;;;;4375932;32;68288;-62
2023/08/25 13:13:52;;;;;;;4.07;1.45;;;;;;;;;;4398711;32;70431;-62
2023/08/25 13:16:46;;;;;;;2.17;1.60;;;;;;;;;;4384148;32;67049;-61
2023/08/25 13:19:50;;;;;;;1.33;1.10;;;;;;;;;;4398743;32;67979;-61
2023/08/25 13:23:01;;;;;;;1.95;1.30;;;;;;;;;;4387905;32;59248;-62
2023/08/25 13:25:59;;;;;;;2.55;1.33;;;;;;;;;;4387133;32;70493;-61
2023/08/25 13:29:19;;;;;;;3.05;1.37;;;;;;;;;;4387216;32;69281;-61
2023/08/25 13:32:11;;;;;;;2.42;1.42;;;;;;;;;;4373367;32;68462;-61
2023/08/25 13:35:02;;;;;;;2.03;1.45;;;;;;;;;;4398901;32;60159;-61
2023/08/25 13:37:59;;;;;;;2.87;1.58;;;;;;;;;;4398476;32;70661;-61
2023/08/25 13:40:56;;;;;;;;;;;;;;;;;;4374411;32;69663;-60
2023/08/25 13:44:03;;;;;;;2.22;0.98;;;;;;;;;;4378583;32;67866;-60
2023/08/25 13:47:33;;;;;;;1.98;1.10;;;;;;;;;;4383968;32;70082;-61
2023/08/25 13:50:53;;;;;;;3.60;1.45;;;;;;;;;;4398392;32;66031;-62
2023/08/25 13:54:14;;;;;;;1.35;1.05;;;;;;;;;;4387564;32;68715;-61
2023/08/25 13:57:09;;;;;;;1.65;1.50;;;;;;;;;;4387273;32;60314;-61
2023/08/25 14:00:14;;;;;;;2.55;1.70;;;;;;;;;;4386451;32;70605;-61
2023/08/25 14:03:00;;;;;;;2.78;1.85;;;;;;;;;;4386370;32;64789;-61
2023/08/25 14:05:52;;;;;;;3.60;2.30;;;;;;;;;;4386866;32;67371;-61
2023/08/25 14:08:47;;;;;;;4.10;2.15;;;;;;;;;;4386381;32;59886;-61
2023/08/25 14:11:47;;;;;;;3.28;1.87;;;;;;;;;;4398107;32;70258;-61
2023/08/25 14:14:37;;;;;;;3.40;2.15;;;;;;;;;;4398085;32;68259;-61
2023/08/25 14:17:42;;;;;;;1.40;1.25;;;;;;;;;;4386889;32;67355;-61
2023/08/25 14:20:37;;;;;;;2.75;1.70;;;;;;;;;;4398431;32;70757;-62
2023/08/25 14:23:47;;;;;;;3.22;1.70;;;;;;;;;;4387621;32;65034;-62
2023/08/25 14:27:12;;;;;;;3.97;2.17;;;;;;;;;;4398796;32;68665;-61
2023/08/25 14:30:06;;;;;;;3.35;2.00;;;;;;;;;;4377414;32;67668;-62
2023/08/25 14:33:00;;;;;;;2.87;2.17;;;;;;;;;;4386141;32;70872;-62
2023/08/25 14:36:13;;;;;;;5.60;2.62;;;;;;;;;;4384032;32;65706;-62
2023/08/25 14:39:37;;;;;;;3.83;2.33;;;;;;;;;;4397974;32;67928;-62
2023/08/25 14:42:29;;;;;;;4.57;2.33;;;;;;;;;;4386734;32;60277;-62
2023/08/25 14:45:27;;;;;;;11.15;4.85;;;;;;;;;;4387663;32;70698;-61
2023/08/25 14:48:25;;;;;;;9.57;4.90;;;;;;;;;;4401323;32;69426;-63
2023/08/25 14:51:20;;;;;;;14.55;7.30;;;;;;;;;;4386183;32;68302;-62
2023/08/25 14:54:12;;;;;;;13.77;6.25;;;;;;;;;;4389346;32;59520;-61
2023/08/25 14:57:09;;;;;;;14.57;7.72;;;;;;;;;;4380277;32;69643;-61
2023/08/25 14:58:41;;;;;;;;;;;;;;;;;;1820734;32;69256;-62
2023/08/25 15:01:38;;;;;;;11.27;6.22;;;;;;;;;;4389396;32;69165;-62
2023/08/25 15:04:46;;;;;;;11.48;5.43;;;;;;;;;;4389447;32;68310;-61
2023/08/25 15:08:00;;;;;;;7.25;3.87;;;;;;;;;;4388968;32;66989;-62
2023/08/25 15:10:53;;;;;;;8.45;4.05;;;;;;;;;;4385542;32;72889;-61
2023/08/25 15:13:44;;;;;;;8.23;4.35;;;;;;;;;;4378885;32;64742;-61
2023/08/25 15:16:44;;;;;;;7.97;4.30;;;;;;;;;;4389354;32;66612;-61
2023/08/25 15:19:34;;;;;;;10.35;4.70;;;;;;;;;;4388880;32;59330;-61
2023/08/25 15:22:48;;;;;;;8.38;4.43;;;;;;;;;;3847512;37;43922;-61
2023/08/25 15:25:47;;;;;;;10.60;4.95;;;;;;;;;;4410208;32;59936;-61
2023/08/25 15:28:35;;;;;;;8.02;4.35;;;;;;;;;;4411709;32;70590;-62
2023/08/25 15:31:25;;;;;;;8.73;3.85;;;;;;;;;;4410996;32;68313;-61
2023/08/25 15:34:19;;;;;;;6.10;3.25;;;;;;;;;;4411405;32;67617;-61
2023/08/25 15:37:16;;;;;;;7.18;3.05;;;;;;;;;;4409758;32;70356;-62
2023/08/25 15:40:11;;;;;;;5.72;2.92;;;;;;;;;;4411148;32;65675;-62
2023/08/25 15:43:07;;;;;;;4.80;2.42;;;;;;;;;;4412530;32;67116;-61
2023/08/25 15:45:57;;;;;;;6.65;2.72;;;;;;;;;;4414356;32;59512;-61
2023/08/25 15:48:54;;;;;;;3.78;2.28;;;;;;;;;;4410826;32;71803;-62
2023/08/25 15:51:47;;;;;;;6.43;2.62;;;;;;;;;;4410758;32;66954;-60
2023/08/25 15:54:39;;;;;;;5.30;2.62;;;;;;;;;;4410771;32;67546;-62
2023/08/25 15:57:40;;;;;;;5.78;2.87;;;;;;;;;;4410985;32;60033;-62
2023/08/25 16:00:34;;;;;;;4.45;2.83;;;;;;;;;;4410485;32;69567;-62
2023/08/25 16:03:26;;;;;;;5.37;2.92;;;;;;;;;;4410887;32;69396;-61
2023/08/25 16:06:25;;;;;;;5.47;3.22;;;;;;;;;;4394144;32;67941;-61
2023/08/25 16:09:23;;;;;;;7.30;3.25;;;;;;;;;;4395703;32;71848;-61
2023/08/25 16:12:14;;;;;;;7.87;3.78;;;;;;;;;;4394583;32;64811;-61
2023/08/25 16:15:00;;;;;;;8.07;3.80;;;;;;;;;;4383655;32;68496;-62
2023/08/25 16:17:50;;;;;;;5.65;3.55;;;;;;;;;;4396474;32;67924;-61
2023/08/25 16:20:51;;;;;;;7.28;3.78;;;;;;;;;;4393601;32;70460;-62
2023/08/25 16:23:45;;;;;;;8.48;4.43;;;;;;;;;;4393947;32;65823;-62
2023/08/25 16:26:43;;;;;;;7.80;4.85;;;;;;;;;;4394263;32;67415;-61
2023/08/25 16:29:33;;;;;;;7.95;4.37;;;;;;;;;;4395788;32;59251;-62
2023/08/25 16:32:23;;;;;;;8.02;4.75;;;;;;;;;;4395505;32;70697;-61
2023/08/25 16:35:11;;;;;;;7.50;4.85;;;;;;;;;;4384033;32;69171;-61
2023/08/25 16:38:03;;;;;;;7.78;4.47;;;;;;;;;;4383929;32;66774;-61
2023/08/25 16:40:54;;;;;;;8.50;4.75;;;;;;;;;;4394559;32;60051;-61
2023/08/25 16:43:46;;;;;;;10.35;5.62;;;;;;;;;;4383869;32;69563;-61
2023/08/25 16:46:38;;;;;;;12.93;7.07;;;;;;;;;;4395757;32;69268;-61
2023/08/25 16:49:34;;;;;;;16.62;8.43;;;;;;;;;;4384867;32;67354;-63
2023/08/25 16:52:27;;;;;;;13.85;7.30;;;;;;;;;;4385029;32;71811;-62
2023/08/25 16:55:16;;;;;;;14.40;8.35;;;;;;;;;;4386558;32;65808;-71
2023/08/25 16:58:07;;;;;;;15.23;8.40;;;;;;;;;;4394812;32;67205;-61
2023/08/25 17:01:05;;;;;;;14.18;8.02;;;;;;;;;;4396976;32;59240;-62
2023/08/25 17:03:54;;;;;;;13.90;7.32;;;;;;;;;;4416539;32;72004;-62
2023/08/25 17:06:47;;;;;;;13.50;6.78;;;;;;;;;;4406142;32;65254;-62
2023/08/25 17:09:36;;;;;;;13.20;7.45;;;;;;;;;;4406804;32;66835;-62
2023/08/25 17:12:25;;;;;;;14.60;7.10;;;;;;;;;;4407036;32;61771;-62
2023/08/25 17:15:14;;;;;;;13.60;7.05;;;;;;;;;;4405775;32;70762;-61
2023/08/25 17:18:09;;;;;;;13.85;7.50;;;;;;;;;;4406144;32;69300;-61
2023/08/25 17:21:01;;;;;;;10.45;6.45;;;;;;;;;;4394215;32;67591;-62
2023/08/25 17:23:54;;;;;;;13.88;6.82;;;;;;;;;;4386842;32;69421;-62
2023/08/25 17:26:45;;;;;;;10.07;5.95;;;;;;;;;;4388376;32;65665;-61
2023/08/25 17:29:32;;;;;;;13.75;6.82;;;;;;;;;;4384378;32;67535;-62
2023/08/25 17:32:12;;;;;;;12.98;7.20;;;;;;;;;;3868780;36;43847;-62
2023/08/25 17:35:04;;;;;;;17.83;11.12;;;;;;;;;;4411799;32;59897;-62
2023/08/25 17:37:58;;;;;;;15.73;9.50;;;;;;;;;;4426453;32;70720;-61
2023/08/25 17:40:47;;;;;;;15.05;9.45;;;;;;;;;;4414842;32;68400;-61
2023/08/25 17:43:44;;;;;;;15.85;8.95;;;;;;;;;;4415556;32;67707;-61
2023/08/25 17:46:34;;;;;;;18.40;9.98;;;;;;;;;;4410866;32;71423;-61
2023/08/25 17:49:23;;;;;;;17.67;9.50;;;;;;;;;;4404006;32;65841;-61
2023/08/25 17:52:10;;;;;;;16.62;9.60;;;;;;;;;;4414453;32;67152;-61
2023/08/25 17:54:58;;;;;;;14.77;8.27;;;;;;;;;;4411735;32;60024;-61
2023/08/25 17:57:51;;;;;;;14.48;8.73;;;;;;;;;;4426377;32;71779;-62
2023/08/25 18:00:40;;;;;;;14.90;8.52;;;;;;;;;;4414433;32;66251;-62
2023/08/25 18:03:37;;;;;;;11.00;6.97;;;;;;;;;;4403721;32;67459;-61